sensor_id;sensor_type;location;lat;lon;timestamp;P1;durP1;ratioP1;P2;durP2;ratioP2
76837;SDS011;65797;47.352;8.164;2023-05-10T09:46:50;1.93;;;0.97;;
76837;SDS011;65797;47.352;8.164;2023-05-10T09:49:17;1.07;;;0.90;;
76837;SDS011;65797;47.352;8.164;2023-05-10T09:51:44;4.10;;;1.50;;
76837;SDS011;65797;47.352;8.164;2023-05-10T09:56:40;2.00;;;1.00;;
76837;SDS011;65797;47.352;8.164;2023-05-10T09:59:07;1.13;;;1.03;;
76837;SDS011;65797;47.352;8.164;2023-05-10T10:01:37;3.97;;;1.10;;
76837;SDS011;65797;47.352;8.164;2023-05-10T10:42:52;2.70;;;1.20;;
76837;SDS011;65797;47.352;8.164;2023-05-10T10:45:18;5.57;;;1.40;;
76837;SDS011;65797;47.352;8.164;2023-05-10T10:47:45;7.60;;;0.90;;
76837;SDS011;65797;47.352;8.164;2023-05-10T10:50:10;1.00;;;0.90;;
76837;SDS011;65797;47.352;8.164;2023-05-10T10:52:41;3.67;;;1.03;;
76837;SDS011;65797;47.352;8.164;2023-05-10T10:55:14;2.60;;;0.90;;
76837;SDS011;65797;47.352;8.164;2023-05-10T10:57:46;4.67;;;0.90;;
76837;SDS011;65797;47.352;8.164;2023-05-10T11:02:56;5.13;;;1.30;;
76837;SDS011;65797;47.352;8.164;2023-05-10T11:07:54;3.20;;;1.00;;
76837;SDS011;65797;47.352;8.164;2023-05-10T11:10:21;1.10;;;1.03;;
76837;SDS011;65797;47.352;8.164;2023-05-10T11:17:59;2.10;;;0.97;;
76837;SDS011;65797;47.352;8.164;2023-05-10T11:20:28;1.83;;;0.90;;
76837;SDS011;65797;47.352;8.164;2023-05-10T11:25:42;1.80;;;0.97;;
76837;SDS011;65797;47.352;8.164;2023-05-10T11:28:12;1.00;;;0.80;;
76837;SDS011;65797;47.352;8.164;2023-05-10T11:35:48;2.70;;;1.10;;
76837;SDS011;65797;47.352;8.164;2023-05-10T11:38:14;1.77;;;1.00;;
76837;SDS011;65797;47.352;8.164;2023-05-10T11:40:40;1.63;;;0.83;;
76837;SDS011;65797;47.352;8.164;2023-05-10T12:03:50;10.83;;;1.00;;
76837;SDS011;65797;47.352;8.164;2023-05-10T12:06:18;17.20;;;1.97;;
76837;SDS011;65797;47.352;8.164;2023-05-10T12:21:41;0.97;;;0.80;;
76837;SDS011;65797;47.352;8.164;2023-05-10T12:24:07;1.33;;;0.73;;
76837;SDS011;65797;47.352;8.164;2023-05-10T13:05:23;0.80;;;0.80;;
76837;SDS011;65797;47.352;8.164;2023-05-10T13:07:49;0.93;;;0.77;;
76837;SDS011;65797;47.352;8.164;2023-05-10T13:10:15;1.50;;;0.80;;
76837;SDS011;65797;47.352;8.164;2023-05-10T13:12:41;1.27;;;0.60;;
76837;SDS011;65797;47.352;8.164;2023-05-10T13:17:42;2.30;;;0.67;;
76837;SDS011;65797;47.352;8.164;2023-05-10T13:20:10;2.53;;;0.87;;
76837;SDS011;65797;47.352;8.164;2023-05-10T13:22:36;2.30;;;0.70;;
76837;SDS011;65797;47.352;8.164;2023-05-10T13:25:02;4.80;;;0.97;;
76837;SDS011;65797;47.352;8.164;2023-05-10T13:27:27;1.13;;;0.77;;
76837;SDS011;65797;47.352;8.164;2023-05-10T13:29:53;1.03;;;0.70;;
76837;SDS011;65797;47.352;8.164;2023-05-10T13:32:20;1.63;;;0.90;;
76837;SDS011;65797;47.352;8.164;2023-05-10T13:34:45;1.83;;;0.80;;
76837;SDS011;65797;47.352;8.164;2023-05-10T13:37:11;0.93;;;0.80;;
76837;SDS011;65797;47.352;8.164;2023-05-10T13:39:37;2.20;;;0.90;;
76837;SDS011;65797;47.352;8.164;2023-05-10T13:42:03;2.37;;;0.77;;
76837;SDS011;65797;47.352;8.164;2023-05-10T13:44:29;1.80;;;0.70;;
76837;SDS011;65797;47.352;8.164;2023-05-10T13:46:55;1.20;;;0.70;;
76837;SDS011;65797;47.352;8.164;2023-05-10T13:49:22;0.90;;;0.80;;
76837;SDS011;65797;47.352;8.164;2023-05-10T13:51:47;2.20;;;1.07;;
76837;SDS011;65797;47.352;8.164;2023-05-10T13:54:13;1.37;;;0.90;;
76837;SDS011;65797;47.352;8.164;2023-05-10T13:56:39;2.40;;;0.90;;
76837;SDS011;65797;47.352;8.164;2023-05-10T14:01:40;1.37;;;0.70;;
76837;SDS011;65797;47.352;8.164;2023-05-10T14:04:07;1.70;;;0.90;;
76837;SDS011;65797;47.352;8.164;2023-05-10T14:09:10;2.80;;;0.90;;
76837;SDS011;65797;47.352;8.164;2023-05-10T14:11:36;1.27;;;0.70;;
76837;SDS011;65797;47.352;8.164;2023-05-10T14:14:01;0.90;;;0.80;;
76837;SDS011;65797;47.352;8.164;2023-05-10T14:16:27;3.03;;;0.80;;
76837;SDS011;65797;47.352;8.164;2023-05-10T14:18:53;0.83;;;0.83;;
76837;SDS011;65797;47.352;8.164;2023-05-10T14:52:29;6.13;;;0.80;;
76837;SDS011;65797;47.352;8.164;2023-05-10T19:02:38;1.40;;;1.30;;
76837;SDS011;65797;47.352;8.164;2023-05-10T19:08:02;2.07;;;1.60;;
76837;SDS011;65797;47.352;8.164;2023-05-10T21:57:57;1.97;;;0.83;;
76837;SDS011;65797;47.352;8.164;2023-05-10T22:00:23;2.30;;;0.70;;
76837;SDS011;65797;47.352;8.164;2023-05-10T22:02:49;3.63;;;1.03;;
76837;SDS011;65797;47.352;8.164;2023-05-10T22:05:15;4.03;;;0.80;;
76837;SDS011;65797;47.352;8.164;2023-05-10T22:07:55;0.80;;;0.80;;
76837;SDS011;65797;47.352;8.164;2023-05-10T22:10:20;2.70;;;0.90;;
76837;SDS011;65797;47.352;8.164;2023-05-10T22:12:54;1.43;;;0.80;;
76837;SDS011;65797;47.352;8.164;2023-05-10T22:15:20;0.70;;;0.70;;
76837;SDS011;65797;47.352;8.164;2023-05-10T22:17:45;2.63;;;0.80;;
76837;SDS011;65797;47.352;8.164;2023-05-10T22:20:11;0.90;;;0.57;;
76837;SDS011;65797;47.352;8.164;2023-05-10T22:23:03;2.03;;;0.93;;
76837;SDS011;65797;47.352;8.164;2023-05-10T22:25:29;3.40;;;0.83;;
76837;SDS011;65797;47.352;8.164;2023-05-10T22:27:58;1.03;;;0.73;;
76837;SDS011;65797;47.352;8.164;2023-05-10T22:30:24;0.97;;;0.90;;
76837;SDS011;65797;47.352;8.164;2023-05-10T22:32:59;0.87;;;0.87;;
76837;SDS011;65797;47.352;8.164;2023-05-10T22:35:25;2.30;;;0.80;;
76837;SDS011;65797;47.352;8.164;2023-05-10T22:37:51;4.20;;;0.90;;
76837;SDS011;65797;47.352;8.164;2023-05-10T22:40:17;2.37;;;1.30;;
76837;SDS011;65797;47.352;8.164;2023-05-10T22:42:42;3.23;;;0.70;;
76837;SDS011;65797;47.352;8.164;2023-05-10T22:45:08;0.90;;;0.90;;
76837;SDS011;65797;47.352;8.164;2023-05-10T22:47:34;0.70;;;0.70;;
76837;SDS011;65797;47.352;8.164;2023-05-10T22:50:00;4.10;;;1.10;;
76837;SDS011;65797;47.352;8.164;2023-05-10T22:52:28;0.67;;;0.67;;
76837;SDS011;65797;47.352;8.164;2023-05-10T22:54:55;2.53;;;1.10;;
76837;SDS011;65797;47.352;8.164;2023-05-10T22:57:21;2.67;;;0.90;;
76837;SDS011;65797;47.352;8.164;2023-05-10T22:59:47;3.43;;;0.80;;
76837;SDS011;65797;47.352;8.164;2023-05-10T23:02:15;2.20;;;1.00;;
76837;SDS011;65797;47.352;8.164;2023-05-10T23:04:41;1.87;;;1.00;;
76837;SDS011;65797;47.352;8.164;2023-05-10T23:07:07;1.23;;;0.83;;
76837;SDS011;65797;47.352;8.164;2023-05-10T23:09:32;7.40;;;1.83;;
76837;SDS011;65797;47.352;8.164;2023-05-10T23:11:59;3.70;;;1.07;;
76837;SDS011;65797;47.352;8.164;2023-05-10T23:14:24;3.90;;;1.00;;
76837;SDS011;65797;47.352;8.164;2023-05-10T23:16:50;1.37;;;1.27;;
76837;SDS011;65797;47.352;8.164;2023-05-10T23:19:16;3.80;;;1.40;;
76837;SDS011;65797;47.352;8.164;2023-05-10T23:21:41;2.20;;;1.70;;
76837;SDS011;65797;47.352;8.164;2023-05-10T23:24:07;3.10;;;1.90;;
76837;SDS011;65797;47.352;8.164;2023-05-10T23:26:33;4.03;;;2.10;;
76837;SDS011;65797;47.352;8.164;2023-05-10T23:28:59;2.37;;;1.63;;
76837;SDS011;65797;47.352;8.164;2023-05-10T23:31:25;2.23;;;1.50;;
76837;SDS011;65797;47.352;8.164;2023-05-10T23:33:51;2.90;;;1.90;;
76837;SDS011;65797;47.352;8.164;2023-05-10T23:36:18;3.63;;;2.73;;
76837;SDS011;65797;47.352;8.164;2023-05-10T23:38:43;3.00;;;1.90;;
76837;SDS011;65797;47.352;8.164;2023-05-10T23:41:09;11.60;;;1.97;;
76837;SDS011;65797;47.352;8.164;2023-05-10T23:43:35;5.90;;;2.50;;
76837;SDS011;65797;47.352;8.164;2023-05-10T23:46:01;3.23;;;2.07;;
76837;SDS011;65797;47.352;8.164;2023-05-10T23:48:29;4.03;;;2.10;;
76837;SDS011;65797;47.352;8.164;2023-05-10T23:50:54;4.63;;;2.93;;
76837;SDS011;65797;47.352;8.164;2023-05-10T23:53:20;7.93;;;1.97;;
76837;SDS011;65797;47.352;8.164;2023-05-10T23:55:46;1.83;;;1.33;;
76837;SDS011;65797;47.352;8.164;2023-05-10T23:58:11;2.40;;;2.03;;
